createdAt,value
2023-01-26T00:01:35.461Z,-1.80
2023-01-26T00:04:02.804Z,-1.90
2023-01-26T00:06:30.021Z,-1.90
2023-01-26T00:08:57.466Z,-1.90
2023-01-26T00:11:26.829Z,-1.90
2023-01-26T00:13:55.339Z,-1.90
2023-01-26T00:16:23.491Z,-1.80
2023-01-26T00:18:50.744Z,-1.80
2023-01-26T00:21:22.666Z,-1.80
2023-01-26T00:23:50.902Z,-1.80
2023-01-26T00:26:21.446Z,-1.80
2023-01-26T00:28:49.456Z,-1.80
2023-01-26T00:31:19.751Z,-1.80
2023-01-26T00:33:47.329Z,-1.80
2023-01-26T00:36:14.803Z,-1.80
2023-01-26T00:38:42.961Z,-1.80
2023-01-26T00:41:30.645Z,-1.80
2023-01-26T00:43:58.338Z,-1.80
2023-01-26T00:46:25.812Z,-1.80
2023-01-26T00:48:54.542Z,-1.80
2023-01-26T00:51:22.407Z,-1.80
2023-01-26T00:53:49.616Z,-1.80
2023-01-26T00:56:17.400Z,-1.70
2023-01-26T00:58:45.444Z,-1.70
2023-01-26T01:01:13.068Z,-1.70
2023-01-26T01:03:42.823Z,-1.70
2023-01-26T01:06:10.631Z,-1.60
2023-01-26T01:08:37.806Z,-1.70
2023-01-26T01:11:11.114Z,-1.70
2023-01-26T01:13:38.760Z,-1.80
2023-01-26T01:16:11.613Z,-1.70
2023-01-26T01:18:39.373Z,-1.80
2023-01-26T01:21:13.154Z,-1.70
2023-01-26T01:23:41.341Z,-1.70
2023-01-26T01:26:08.938Z,-1.70
2023-01-26T01:28:37.712Z,-1.70
2023-01-26T01:31:06.522Z,-1.70
2023-01-26T01:33:34.093Z,-1.70
2023-01-26T01:36:04.942Z,-1.70
2023-01-26T01:38:32.672Z,-1.70
2023-01-26T01:41:00.010Z,-1.70
2023-01-26T01:43:28.508Z,-1.70
2023-01-26T01:45:56.068Z,-1.70
2023-01-26T01:48:29.978Z,-1.70
2023-01-26T01:51:05.973Z,-1.70
2023-01-26T01:53:38.974Z,-1.70
2023-01-26T01:56:12.700Z,-1.70
2023-01-26T01:58:43.564Z,-1.70
2023-01-26T02:01:11.403Z,-1.60
2023-01-26T02:03:42.676Z,-1.60
2023-01-26T02:06:47.380Z,-1.60
2023-01-26T02:09:35.587Z,-1.60
2023-01-26T02:12:06.432Z,-1.60
2023-01-26T02:14:34.124Z,-1.60
2023-01-26T02:17:02.918Z,-1.60
2023-01-26T02:19:45.783Z,-1.60
2023-01-26T02:22:24.849Z,-1.60
2023-01-26T02:24:59.190Z,-1.50
2023-01-26T02:27:27.023Z,-1.50
2023-01-26T02:29:56.143Z,-1.50
2023-01-26T02:32:23.364Z,-1.50
2023-01-26T02:34:58.214Z,-1.50
2023-01-26T02:37:25.413Z,-1.50
2023-01-26T02:40:02.494Z,-1.50
2023-01-26T02:42:38.445Z,-1.50
2023-01-26T02:45:07.132Z,-1.50
2023-01-26T02:47:34.596Z,-1.50
2023-01-26T02:50:05.211Z,-1.50
2023-01-26T02:52:33.626Z,-1.50
2023-01-26T02:55:22.751Z,-1.50
2023-01-26T02:57:52.099Z,-1.50
2023-01-26T03:00:22.357Z,-1.50
2023-01-26T03:02:53.496Z,-1.50
2023-01-26T03:05:20.881Z,-1.50
2023-01-26T03:07:48.661Z,-1.50
2023-01-26T03:10:18.095Z,-1.50
2023-01-26T03:12:45.993Z,-1.50
2023-01-26T03:15:31.856Z,-1.40
2023-01-26T03:18:26.413Z,-1.40
2023-01-26T03:21:13.405Z,-1.40
2023-01-26T03:24:07.795Z,-1.40
2023-01-26T03:26:56.265Z,-1.40
2023-01-26T03:29:23.744Z,-1.30
2023-01-26T03:31:53.371Z,-1.30
2023-01-26T03:34:21.803Z,-1.30
2023-01-26T03:36:49.243Z,-1.20
2023-01-26T03:39:36.639Z,-1.20
2023-01-26T03:42:23.602Z,-1.20
2023-01-26T03:45:09.690Z,-1.20
2023-01-26T03:47:57.407Z,-1.20
2023-01-26T03:50:43.763Z,-1.20
2023-01-26T03:53:34.387Z,-1.20
2023-01-26T03:56:20.300Z,-1.20
2023-01-26T03:58:56.708Z,-1.20
2023-01-26T04:01:27.990Z,-1.20
2023-01-26T04:04:16.310Z,-1.20
2023-01-26T04:07:07.065Z,-1.20
2023-01-26T04:09:37.074Z,-1.20
2023-01-26T04:12:04.535Z,-1.20
2023-01-26T04:14:51.424Z,-1.20
2023-01-26T04:17:42.251Z,-1.20
2023-01-26T04:20:28.619Z,-1.20
2023-01-26T04:22:56.828Z,-1.20
2023-01-26T04:25:24.058Z,-1.20
2023-01-26T04:27:51.682Z,-1.20
2023-01-26T04:30:19.756Z,-1.20
2023-01-26T04:32:47.685Z,-1.20
2023-01-26T04:35:15.030Z,-1.20
2023-01-26T04:37:43.695Z,-1.20
2023-01-26T04:40:11.753Z,-1.20
2023-01-26T04:42:39.257Z,-1.20
2023-01-26T04:45:07.354Z,-1.20
2023-01-26T04:47:35.635Z,-1.20
2023-01-26T04:50:04.786Z,-1.10
2023-01-26T04:52:32.562Z,-1.10
2023-01-26T04:55:00.433Z,-1.10
2023-01-26T04:57:28.636Z,-1.00
2023-01-26T04:59:55.829Z,-0.90
2023-01-26T05:02:23.153Z,-0.90
2023-01-26T05:04:50.652Z,-1.00
2023-01-26T05:07:17.861Z,-1.00
2023-01-26T05:09:46.671Z,-1.00
2023-01-26T05:12:42.634Z,-1.00
2023-01-26T05:15:25.624Z,-1.00
2023-01-26T05:17:59.898Z,-1.00
2023-01-26T05:20:47.955Z,-1.00
2023-01-26T05:23:17.506Z,-1.00
2023-01-26T05:26:04.825Z,-1.00
2023-01-26T05:28:39.837Z,-1.00
2023-01-26T05:31:07.089Z,-1.00
2023-01-26T05:33:34.518Z,-1.00
2023-01-26T05:36:07.472Z,-0.90
2023-01-26T05:38:35.288Z,-0.90
2023-01-26T05:41:02.868Z,-0.90
2023-01-26T05:43:36.982Z,-0.90
2023-01-26T05:46:23.297Z,-0.80
2023-01-26T05:48:50.747Z,-0.80
2023-01-26T05:51:19.001Z,-0.80
2023-01-26T05:53:46.736Z,-0.90
2023-01-26T05:56:14.617Z,-0.80
2023-01-26T05:58:47.141Z,-0.80
2023-01-26T06:01:14.524Z,-0.80
2023-01-26T06:03:50.130Z,-0.80
2023-01-26T06:06:17.362Z,-0.80
2023-01-26T06:08:51.711Z,-0.80
2023-01-26T06:11:34.474Z,-0.80
2023-01-26T06:14:08.583Z,-0.80
2023-01-26T06:16:35.919Z,-0.80
2023-01-26T06:19:03.594Z,-0.80
2023-01-26T06:21:33.585Z,-0.80
2023-01-26T06:24:00.836Z,-0.80
2023-01-26T06:26:29.803Z,-0.80
2023-01-26T06:28:58.128Z,-0.80
2023-01-26T06:31:29.831Z,-0.80
2023-01-26T06:33:59.151Z,-0.80
2023-01-26T06:36:28.245Z,-0.80
2023-01-26T06:38:57.420Z,-0.80
2023-01-26T06:41:25.311Z,-0.80
2023-01-26T06:43:52.958Z,-0.80
2023-01-26T06:46:20.749Z,-0.80
2023-01-26T06:48:49.512Z,-0.80
2023-01-26T06:51:16.713Z,-0.80
2023-01-26T06:53:58.266Z,-0.70
2023-01-26T06:56:33.531Z,-0.80
2023-01-26T06:59:21.367Z,-0.70
2023-01-26T07:02:17.734Z,-0.70
2023-01-26T07:04:46.608Z,-0.70
2023-01-26T07:07:14.127Z,-0.70
2023-01-26T07:09:41.521Z,-0.70
2023-01-26T07:12:09.430Z,-0.70
2023-01-26T07:14:36.633Z,-0.70
2023-01-26T07:17:29.377Z,-0.70
2023-01-26T07:19:56.588Z,-0.60
2023-01-26T07:22:23.784Z,-0.70
2023-01-26T07:24:51.053Z,-0.60
2023-01-26T07:27:18.268Z,-0.60
2023-01-26T07:29:46.466Z,-0.60
2023-01-26T07:32:13.817Z,-0.60
2023-01-26T07:34:41.053Z,-0.60
2023-01-26T07:37:08.381Z,-0.50
2023-01-26T07:39:35.574Z,-0.50
2023-01-26T07:42:02.888Z,-0.50
2023-01-26T07:44:41.556Z,-0.50
2023-01-26T07:47:09.171Z,-0.50
2023-01-26T07:49:36.328Z,-0.40
2023-01-26T07:52:04.863Z,-0.40
2023-01-26T07:54:32.316Z,-0.40
2023-01-26T07:57:00.271Z,-0.30
2023-01-26T07:59:28.045Z,-0.20
2023-01-26T08:01:55.286Z,-0.20
2023-01-26T08:04:22.456Z,-0.10
2023-01-26T08:06:51.875Z,-0.10
2023-01-26T08:09:19.172Z,-0.20
2023-01-26T08:11:46.384Z,-0.20
2023-01-26T08:14:13.727Z,-0.20
2023-01-26T08:16:41.031Z,-0.20
2023-01-26T08:19:08.415Z,-0.10
2023-01-26T08:21:36.393Z,-0.10
2023-01-26T08:24:03.847Z,-0.10
2023-01-26T08:26:32.087Z,0.00
2023-01-26T08:28:59.327Z,0.00
2023-01-26T08:31:28.140Z,0.00
2023-01-26T08:33:55.870Z,0.10
2023-01-26T08:36:23.469Z,0.10
2023-01-26T08:38:51.792Z,0.10
2023-01-26T08:41:19.087Z,0.10
2023-01-26T08:43:46.757Z,0.10
2023-01-26T08:46:14.778Z,0.20
2023-01-26T08:48:41.990Z,0.20
2023-01-26T08:51:09.900Z,0.20
2023-01-26T08:53:37.563Z,0.20
2023-01-26T08:56:07.440Z,0.20
2023-01-26T08:58:35.717Z,0.20
2023-01-26T09:01:07.224Z,0.20
2023-01-26T09:03:34.463Z,0.20
2023-01-26T09:06:04.308Z,0.30
2023-01-26T09:08:31.944Z,0.30
2023-01-26T09:11:00.056Z,0.30
2023-01-26T09:13:27.411Z,0.30
2023-01-26T09:15:54.637Z,0.30
2023-01-26T09:18:21.864Z,0.30
2023-01-26T09:20:51.047Z,0.30
2023-01-26T09:23:18.760Z,0.30
2023-01-26T09:25:46.268Z,0.30
2023-01-26T09:28:13.631Z,0.30
2023-01-26T09:30:40.889Z,0.30
2023-01-26T09:33:08.396Z,0.30
2023-01-26T09:35:36.125Z,0.30
2023-01-26T09:38:03.273Z,0.40
2023-01-26T09:40:51.731Z,0.40
2023-01-26T09:43:38.320Z,0.50
2023-01-26T09:46:16.785Z,0.50
2023-01-26T09:48:53.841Z,0.60
2023-01-26T09:51:32.104Z,0.50
2023-01-26T09:54:12.296Z,0.60
2023-01-26T09:56:39.917Z,0.60
2023-01-26T09:59:36.561Z,0.60
2023-01-26T10:02:34.608Z,0.60
2023-01-26T10:05:08.078Z,0.60
2023-01-26T10:07:38.169Z,0.60
2023-01-26T10:10:05.868Z,0.70
2023-01-26T10:12:36.217Z,0.70
2023-01-26T10:15:26.493Z,0.80
2023-01-26T10:17:56.888Z,0.70
2023-01-26T10:20:36.751Z,0.70
2023-01-26T10:23:14.179Z,0.70
2023-01-26T10:25:42.495Z,0.60
2023-01-26T10:28:18.369Z,0.60
2023-01-26T10:30:47.478Z,0.70
2023-01-26T10:33:36.674Z,0.70
2023-01-26T10:36:07.164Z,0.70
2023-01-26T10:38:37.158Z,0.80
2023-01-26T10:41:14.162Z,0.80
2023-01-26T10:43:43.428Z,0.90
2023-01-26T10:46:24.922Z,0.90
2023-01-26T10:48:57.495Z,0.90
2023-01-26T10:51:31.155Z,1.00
2023-01-26T10:54:20.081Z,1.00
2023-01-26T10:56:58.154Z,1.00
2023-01-26T10:59:34.193Z,1.00
2023-01-26T11:02:19.357Z,1.00
2023-01-26T11:05:07.770Z,1.10
2023-01-26T11:07:36.233Z,1.10
2023-01-26T11:10:24.680Z,1.10
2023-01-26T11:13:06.389Z,1.10
2023-01-26T11:15:38.598Z,1.10
2023-01-26T11:18:27.030Z,1.10
2023-01-26T11:21:11.811Z,1.10
2023-01-26T11:23:51.454Z,1.20
2023-01-26T11:26:24.622Z,1.30
2023-01-26T11:29:29.272Z,1.30
2023-01-26T11:32:05.387Z,1.40
2023-01-26T11:35:10.323Z,1.40
2023-01-26T11:37:53.029Z,1.50
2023-01-26T11:40:24.759Z,1.50
2023-01-26T11:43:23.287Z,1.50
2023-01-26T11:46:03.914Z,1.60
2023-01-26T11:49:14.425Z,1.70
2023-01-26T11:51:50.125Z,1.90
2023-01-26T11:54:29.131Z,2.00
2023-01-26T11:57:20.768Z,2.10
2023-01-26T12:00:09.416Z,2.10
2023-01-26T12:02:45.400Z,2.10
2023-01-26T12:05:20.906Z,2.30
2023-01-26T12:08:11.183Z,2.30
2023-01-26T12:10:50.855Z,2.30
2023-01-26T12:13:36.539Z,2.40
2023-01-26T12:16:13.623Z,2.40
2023-01-26T12:19:05.396Z,2.40
2023-01-26T12:21:40.860Z,2.50
2023-01-26T12:24:39.169Z,2.40
2023-01-26T12:27:05.462Z,2.40
2023-01-26T12:30:02.072Z,2.40
2023-01-26T12:32:29.368Z,2.40
2023-01-26T12:34:57.848Z,2.40
2023-01-26T12:37:57.616Z,2.40
2023-01-26T12:40:36.765Z,2.40
2023-01-26T12:43:32.601Z,2.40
2023-01-26T12:46:03.179Z,2.40
2023-01-26T12:48:45.487Z,2.40
2023-01-26T12:51:22.714Z,2.40
2023-01-26T12:54:03.569Z,2.50
2023-01-26T12:56:36.903Z,2.60
2023-01-26T12:59:39.252Z,2.60
2023-01-26T13:02:27.772Z,2.70
2023-01-26T13:05:00.456Z,2.80
2023-01-26T13:07:33.654Z,2.90
2023-01-26T13:10:20.239Z,2.90
2023-01-26T13:13:00.509Z,3.00
2023-01-26T13:15:32.261Z,3.00
2023-01-26T13:18:02.488Z,3.10
2023-01-26T13:20:47.786Z,3.10
2023-01-26T13:23:38.994Z,3.10
2023-01-26T13:26:32.623Z,3.20
2023-01-26T13:29:24.356Z,3.30
2023-01-26T13:31:52.729Z,3.30
2023-01-26T13:34:26.110Z,3.40
2023-01-26T13:36:59.290Z,3.40
2023-01-26T13:39:31.724Z,3.50
2023-01-26T13:41:58.916Z,3.40
2023-01-26T13:44:42.585Z,3.40
2023-01-26T13:47:19.404Z,3.40
2023-01-26T13:49:50.363Z,3.40
2023-01-26T13:52:20.604Z,3.40
2023-01-26T13:54:49.333Z,3.30
2023-01-26T13:57:30.441Z,3.20
2023-01-26T14:00:00.373Z,3.20
2023-01-26T14:02:32.998Z,3.20
2023-01-26T14:05:01.631Z,3.30
2023-01-26T14:07:38.046Z,3.30
2023-01-26T14:10:07.356Z,3.30
2023-01-26T14:12:48.393Z,3.30
2023-01-26T14:15:29.921Z,3.30
2023-01-26T14:18:00.148Z,3.40
2023-01-26T14:20:31.236Z,3.40
2023-01-26T14:23:06.999Z,3.40
2023-01-26T14:25:34.559Z,3.40
2023-01-26T14:28:01.867Z,3.40
2023-01-26T14:30:34.403Z,3.40
2023-01-26T14:33:16.985Z,3.50
2023-01-26T14:35:56.803Z,3.50
2023-01-26T14:38:24.090Z,3.50
2023-01-26T14:40:56.863Z,3.60
2023-01-26T14:43:25.507Z,3.60
2023-01-26T14:46:07.772Z,3.60
2023-01-26T14:48:52.640Z,3.60
2023-01-26T14:51:25.180Z,3.60
2023-01-26T14:54:08.154Z,3.60
2023-01-26T14:56:38.528Z,3.60
2023-01-26T14:59:09.345Z,3.60
2023-01-26T15:01:36.714Z,3.60
2023-01-26T15:04:16.924Z,3.70
2023-01-26T15:06:44.186Z,3.70
2023-01-26T15:09:28.277Z,3.70
2023-01-26T15:12:18.341Z,3.70
2023-01-26T15:14:45.473Z,3.70
2023-01-26T15:17:39.876Z,3.80
2023-01-26T15:20:16.107Z,3.80
2023-01-26T15:22:52.785Z,3.70
2023-01-26T15:25:28.817Z,3.70
2023-01-26T15:27:59.135Z,3.70
2023-01-26T15:30:32.842Z,3.70
2023-01-26T15:33:00.762Z,3.60
2023-01-26T15:35:33.217Z,3.60
2023-01-26T15:38:06.347Z,3.60
2023-01-26T15:40:33.559Z,3.60
2023-01-26T15:43:12.344Z,3.50
2023-01-26T15:45:50.016Z,3.50
2023-01-26T15:48:17.548Z,3.50
2023-01-26T15:50:46.083Z,3.40
2023-01-26T15:53:14.799Z,3.40
2023-01-26T15:55:44.404Z,3.40
2023-01-26T15:58:11.658Z,3.40
2023-01-26T16:00:39.056Z,3.40
2023-01-26T16:03:13.591Z,3.30
2023-01-26T16:05:40.777Z,3.30
2023-01-26T16:08:09.903Z,3.30
2023-01-26T16:10:38.452Z,3.30
2023-01-26T16:13:12.703Z,3.30
2023-01-26T16:15:46.226Z,3.30
2023-01-26T16:18:13.561Z,3.30
2023-01-26T16:20:43.238Z,3.30
2023-01-26T16:23:27.289Z,3.20
2023-01-26T16:25:55.406Z,3.20
2023-01-26T16:28:22.847Z,3.20
2023-01-26T16:30:51.206Z,3.20
2023-01-26T16:33:24.875Z,3.20
2023-01-26T16:35:52.252Z,3.20
2023-01-26T16:38:19.430Z,3.10
2023-01-26T16:40:48.247Z,3.10
2023-01-26T16:43:23.658Z,3.10
2023-01-26T16:45:52.380Z,3.10
2023-01-26T16:48:20.589Z,3.10
2023-01-26T16:50:51.324Z,3.10
2023-01-26T16:53:35.989Z,3.00
2023-01-26T16:56:04.085Z,3.00
2023-01-26T16:58:33.079Z,3.00
2023-01-26T17:01:01.174Z,3.00
2023-01-26T17:03:29.468Z,3.00
2023-01-26T17:05:57.193Z,3.00
2023-01-26T17:08:24.483Z,3.00
2023-01-26T17:11:02.198Z,3.00
2023-01-26T17:13:31.573Z,3.00
2023-01-26T17:15:59.232Z,3.00
2023-01-26T17:18:26.597Z,3.00
2023-01-26T17:20:53.846Z,3.00
2023-01-26T17:23:21.021Z,2.90
2023-01-26T17:25:48.372Z,2.90
2023-01-26T17:28:15.964Z,2.90
2023-01-26T17:30:43.735Z,2.90
2023-01-26T17:33:10.915Z,2.90
2023-01-26T17:35:38.688Z,2.90
2023-01-26T17:38:05.833Z,2.90
2023-01-26T17:40:33.030Z,2.90
2023-01-26T17:43:00.458Z,2.90
2023-01-26T17:45:28.315Z,2.90
2023-01-26T17:47:55.628Z,2.90
2023-01-26T17:50:22.820Z,2.90
2023-01-26T17:52:50.016Z,2.90
2023-01-26T17:55:17.740Z,2.90
2023-01-26T17:57:44.944Z,2.90
2023-01-26T18:00:12.868Z,2.90
2023-01-26T18:02:40.222Z,2.90
2023-01-26T18:05:08.762Z,2.90
2023-01-26T18:07:37.728Z,2.90
2023-01-26T18:10:05.386Z,2.90
2023-01-26T18:12:33.189Z,2.90
2023-01-26T18:15:00.507Z,2.90
2023-01-26T18:17:27.668Z,3.00
2023-01-26T18:19:54.850Z,3.00
2023-01-26T18:22:22.062Z,3.00
2023-01-26T18:24:49.631Z,3.00
2023-01-26T18:27:16.967Z,3.00
2023-01-26T18:29:44.138Z,3.00
2023-01-26T18:32:11.334Z,3.00
2023-01-26T18:34:41.662Z,3.00
2023-01-26T18:37:09.645Z,3.00
2023-01-26T18:39:37.375Z,3.00
2023-01-26T18:42:05.410Z,3.00
2023-01-26T18:44:32.634Z,3.00
2023-01-26T18:46:59.823Z,3.00
2023-01-26T18:49:27.142Z,3.00
2023-01-26T18:51:55.541Z,3.00
2023-01-26T18:54:22.817Z,3.00
2023-01-26T18:56:50.044Z,3.00
2023-01-26T18:59:17.700Z,3.00
2023-01-26T19:01:44.875Z,2.90
2023-01-26T19:04:12.947Z,2.90
2023-01-26T19:06:40.111Z,2.90
2023-01-26T19:09:08.458Z,2.90
2023-01-26T19:11:38.173Z,2.90
2023-01-26T19:14:07.281Z,2.90
2023-01-26T19:16:35.748Z,2.90
2023-01-26T19:19:03.458Z,2.90
2023-01-26T19:21:33.739Z,2.90
2023-01-26T19:24:06.430Z,2.90
2023-01-26T19:26:34.071Z,2.90
2023-01-26T19:29:01.436Z,2.90
2023-01-26T19:31:28.940Z,2.90
2023-01-26T19:34:02.330Z,2.90
2023-01-26T19:36:32.189Z,2.90
2023-01-26T19:39:00.504Z,2.90
2023-01-26T19:41:27.774Z,2.90
2023-01-26T19:43:55.410Z,2.90
2023-01-26T19:46:22.885Z,2.90
2023-01-26T19:48:50.694Z,2.90
2023-01-26T19:51:21.313Z,2.90
2023-01-26T19:53:50.562Z,2.90
2023-01-26T19:56:20.963Z,2.90
2023-01-26T19:59:00.315Z,2.90
2023-01-26T20:01:31.343Z,2.90
2023-01-26T20:04:04.664Z,2.90
2023-01-26T20:06:34.655Z,3.00
2023-01-26T20:09:05.981Z,3.00
2023-01-26T20:11:34.240Z,3.00
2023-01-26T20:14:05.659Z,3.00
2023-01-26T20:16:34.201Z,3.10
2023-01-26T20:19:01.823Z,3.10
2023-01-26T20:21:29.981Z,3.10
2023-01-26T20:24:05.286Z,3.10
2023-01-26T20:26:34.233Z,3.10
2023-01-26T20:29:01.530Z,3.20
2023-01-26T20:31:28.849Z,3.20
2023-01-26T20:33:56.478Z,3.20
2023-01-26T20:36:27.018Z,3.20
2023-01-26T20:38:54.545Z,3.20
2023-01-26T20:41:27.333Z,3.20
2023-01-26T20:44:00.270Z,3.20
2023-01-26T20:46:34.549Z,3.20
2023-01-26T20:49:02.265Z,3.20
2023-01-26T20:51:33.852Z,3.20
2023-01-26T20:54:02.034Z,3.20
2023-01-26T20:56:30.824Z,3.20
2023-01-26T20:58:58.243Z,3.20
2023-01-26T21:01:26.450Z,3.20
2023-01-26T21:03:54.479Z,3.20
2023-01-26T21:06:23.965Z,3.20
2023-01-26T21:08:54.100Z,3.20
2023-01-26T21:11:23.931Z,3.30
2023-01-26T21:13:51.988Z,3.30
2023-01-26T21:16:19.884Z,3.30
2023-01-26T21:18:47.938Z,3.30
2023-01-26T21:21:17.492Z,3.30
2023-01-26T21:23:45.444Z,3.30
2023-01-26T21:26:15.340Z,3.30
2023-01-26T21:28:42.723Z,3.30
2023-01-26T21:31:13.795Z,3.30
2023-01-26T21:33:43.350Z,3.30
2023-01-26T21:36:14.797Z,3.30
2023-01-26T21:38:44.864Z,3.30
2023-01-26T21:41:33.400Z,3.30
2023-01-26T21:44:10.225Z,3.30
2023-01-26T21:46:38.635Z,3.30
2023-01-26T21:49:06.460Z,3.30
2023-01-26T21:51:53.583Z,3.30
2023-01-26T21:54:20.833Z,3.30
2023-01-26T21:56:48.080Z,3.30
2023-01-26T21:59:17.415Z,3.30
2023-01-26T22:01:49.847Z,3.30
2023-01-26T22:04:22.667Z,3.30
2023-01-26T22:06:52.168Z,3.30
2023-01-26T22:09:21.157Z,3.30
2023-01-26T22:11:50.369Z,3.30
2023-01-26T22:14:21.929Z,3.30
2023-01-26T22:16:49.480Z,3.30
2023-01-26T22:19:16.825Z,3.30
2023-01-26T22:21:44.643Z,3.30
2023-01-26T22:24:15.338Z,3.30
2023-01-26T22:26:42.556Z,3.40
2023-01-26T22:29:12.691Z,3.40
2023-01-26T22:31:39.937Z,3.40
2023-01-26T22:34:07.338Z,3.40
2023-01-26T22:36:34.531Z,3.40
2023-01-26T22:39:01.812Z,3.40
2023-01-26T22:41:34.316Z,3.40
2023-01-26T22:44:01.778Z,3.40
2023-01-26T22:46:31.029Z,3.40
2023-01-26T22:48:59.357Z,3.50
2023-01-26T22:51:30.078Z,3.50
2023-01-26T22:53:58.460Z,3.50
2023-01-26T22:56:26.466Z,3.50
2023-01-26T22:58:59.023Z,3.50
2023-01-26T23:01:31.863Z,3.50
2023-01-26T23:04:01.043Z,3.50
2023-01-26T23:06:29.089Z,3.50
2023-01-26T23:08:58.140Z,3.50
2023-01-26T23:11:27.780Z,3.50
2023-01-26T23:13:56.581Z,3.60
2023-01-26T23:16:24.963Z,3.60
2023-01-26T23:18:53.874Z,3.60
2023-01-26T23:21:21.207Z,3.60
2023-01-26T23:23:48.590Z,3.60
2023-01-26T23:26:16.431Z,3.60
2023-01-26T23:28:44.711Z,3.60
2023-01-26T23:31:13.743Z,3.60
2023-01-26T23:33:41.522Z,3.60
2023-01-26T23:36:11.460Z,3.60
2023-01-26T23:38:38.986Z,3.60
2023-01-26T23:41:08.341Z,3.60
2023-01-26T23:43:35.948Z,3.60
2023-01-26T23:46:04.900Z,3.50
2023-01-26T23:48:32.126Z,3.50
2023-01-26T23:51:02.573Z,3.50
2023-01-26T23:53:30.791Z,3.60
2023-01-26T23:56:00.414Z,3.60
2023-01-26T23:58:27.601Z,3.70
